sensor_id;sensor_type;location;lat;lon;timestamp;P1;durP1;ratioP1;P2;durP2;ratioP2
22378;SDS011;11357;49.990;7.370;2024-03-23T00:52:20;1186.03;;;338.30;;
22378;SDS011;11357;49.990;7.370;2024-03-23T00:54:47;943.40;;;260.03;;
22378;SDS011;11357;49.990;7.370;2024-03-23T00:57:12;700.97;;;235.30;;
22378;SDS011;11357;49.990;7.370;2024-03-23T00:59:39;712.70;;;201.83;;
22378;SDS011;11357;49.990;7.370;2024-03-23T01:02:04;880.70;;;252.23;;
22378;SDS011;11357;49.990;7.370;2024-03-23T01:04:30;834.33;;;219.27;;
22378;SDS011;11357;49.990;7.370;2024-03-23T01:06:56;777.13;;;234.93;;
22378;SDS011;11357;49.990;7.370;2024-03-23T01:11:57;710.37;;;227.57;;
22378;SDS011;11357;49.990;7.370;2024-03-23T01:14:22;700.17;;;208.73;;
22378;SDS011;11357;49.990;7.370;2024-03-23T01:16:48;751.47;;;232.23;;
22378;SDS011;11357;49.990;7.370;2024-03-23T01:24:24;739.77;;;230.30;;
22378;SDS011;11357;49.990;7.370;2024-03-23T01:26:50;685.43;;;219.37;;
22378;SDS011;11357;49.990;7.370;2024-03-23T01:32:12;798.20;;;245.63;;
22378;SDS011;11357;49.990;7.370;2024-03-23T01:34:38;704.67;;;233.53;;
22378;SDS011;11357;49.990;7.370;2024-03-23T01:37:04;932.97;;;237.93;;
22378;SDS011;11357;49.990;7.370;2024-03-23T01:47:22;698.07;;;188.87;;
22378;SDS011;11357;49.990;7.370;2024-03-23T01:57:34;469.50;;;138.83;;
22378;SDS011;11357;49.990;7.370;2024-03-23T02:05:11;468.90;;;134.70;;
22378;SDS011;11357;49.990;7.370;2024-03-23T02:07:37;441.53;;;132.30;;
22378;SDS011;11357;49.990;7.370;2024-03-23T02:23:04;456.50;;;142.10;;
22378;SDS011;11357;49.990;7.370;2024-03-23T02:25:33;488.13;;;127.47;;
22378;SDS011;11357;49.990;7.370;2024-03-23T02:27:59;443.00;;;111.70;;
22378;SDS011;11357;49.990;7.370;2024-03-23T02:30:31;337.83;;;86.60;;
22378;SDS011;11357;49.990;7.370;2024-03-23T02:32:57;267.20;;;79.13;;
22378;SDS011;11357;49.990;7.370;2024-03-23T02:35:22;280.47;;;75.67;;
22378;SDS011;11357;49.990;7.370;2024-03-23T02:37:48;266.97;;;71.37;;
22378;SDS011;11357;49.990;7.370;2024-03-23T02:48:01;296.03;;;71.30;;
22378;SDS011;11357;49.990;7.370;2024-03-23T02:58:18;1999.90;;;355.27;;
22378;SDS011;11357;49.990;7.370;2024-03-23T03:00:48;1999.90;;;458.50;;
22378;SDS011;11357;49.990;7.370;2024-03-23T03:03:13;1999.90;;;371.73;;
22378;SDS011;11357;49.990;7.370;2024-03-23T03:05:39;1999.90;;;311.10;;
22378;SDS011;11357;49.990;7.370;2024-03-23T03:08:05;1999.90;;;358.33;;
22378;SDS011;11357;49.990;7.370;2024-03-23T03:13:15;1999.90;;;366.13;;
22378;SDS011;11357;49.990;7.370;2024-03-23T03:15:42;1999.90;;;473.80;;
22378;SDS011;11357;49.990;7.370;2024-03-23T03:18:08;1999.90;;;414.63;;
22378;SDS011;11357;49.990;7.370;2024-03-23T03:25:51;661.33;;;186.33;;
22378;SDS011;11357;49.990;7.370;2024-03-23T03:28:16;1451.73;;;294.20;;
22378;SDS011;11357;49.990;7.370;2024-03-23T04:01:48;952.40;;;296.87;;
22378;SDS011;11357;49.990;7.370;2024-03-23T04:04:13;1999.90;;;525.27;;
22378;SDS011;11357;49.990;7.370;2024-03-23T04:06:41;1853.43;;;360.30;;
22378;SDS011;11357;49.990;7.370;2024-03-23T04:27:16;1999.90;;;391.90;;
22378;SDS011;11357;49.990;7.370;2024-03-23T04:50:24;1745.77;;;721.10;;
22378;SDS011;11357;49.990;7.370;2024-03-23T04:52:50;990.80;;;268.93;;
22378;SDS011;11357;49.990;7.370;2024-03-23T04:55:16;1544.43;;;329.90;;
22378;SDS011;11357;49.990;7.370;2024-03-23T04:57:42;1616.47;;;399.67;;
22378;SDS011;11357;49.990;7.370;2024-03-23T05:16:11;1611.10;;;728.57;;
22378;SDS011;11357;49.990;7.370;2024-03-23T05:21:27;1467.77;;;251.97;;
22378;SDS011;11357;49.990;7.370;2024-03-23T05:23:56;1999.90;;;541.43;;
22378;SDS011;11357;49.990;7.370;2024-03-23T05:26:22;1121.97;;;219.80;;
22378;SDS011;11357;49.990;7.370;2024-03-23T05:31:30;1572.43;;;276.37;;
22378;SDS011;11357;49.990;7.370;2024-03-23T05:33:56;1024.43;;;296.73;;
22378;SDS011;11357;49.990;7.370;2024-03-23T05:36:22;1804.90;;;394.50;;
22378;SDS011;11357;49.990;7.370;2024-03-23T05:44:21;1991.30;;;322.77;;
22378;SDS011;11357;49.990;7.370;2024-03-23T05:46:46;1999.90;;;769.03;;
22378;SDS011;11357;49.990;7.370;2024-03-23T05:59:35;1999.90;;;999.90;;
22378;SDS011;11357;49.990;7.370;2024-03-23T06:02:00;1999.90;;;999.90;;
22378;SDS011;11357;49.990;7.370;2024-03-23T06:04:26;1999.90;;;999.90;;
22378;SDS011;11357;49.990;7.370;2024-03-23T06:06:52;1512.27;;;702.37;;
22378;SDS011;11357;49.990;7.370;2024-03-23T06:09:17;1999.90;;;999.90;;
22378;SDS011;11357;49.990;7.370;2024-03-23T06:11:44;1999.90;;;999.90;;
22378;SDS011;11357;49.990;7.370;2024-03-23T06:14:10;1999.90;;;999.90;;
22378;SDS011;11357;49.990;7.370;2024-03-23T06:16:35;1999.90;;;999.90;;
22378;SDS011;11357;49.990;7.370;2024-03-23T06:24:58;1626.90;;;723.27;;
22378;SDS011;11357;49.990;7.370;2024-03-23T06:27:24;1716.70;;;753.40;;
22378;SDS011;11357;49.990;7.370;2024-03-23T06:32:25;1440.37;;;311.33;;
22378;SDS011;11357;49.990;7.370;2024-03-23T06:34:51;1007.63;;;201.53;;
22378;SDS011;11357;49.990;7.370;2024-03-23T06:37:17;1314.30;;;328.77;;
22378;SDS011;11357;49.990;7.370;2024-03-23T06:42:23;1758.63;;;755.83;;
22378;SDS011;11357;49.990;7.370;2024-03-23T06:44:49;1733.03;;;729.73;;
22378;SDS011;11357;49.990;7.370;2024-03-23T06:47:15;1999.90;;;999.90;;
22378;SDS011;11357;49.990;7.370;2024-03-23T06:52:22;1999.90;;;999.90;;
22378;SDS011;11357;49.990;7.370;2024-03-23T06:54:47;1999.90;;;999.90;;
22378;SDS011;11357;49.990;7.370;2024-03-23T06:57:13;1999.90;;;999.90;;
22378;SDS011;11357;49.990;7.370;2024-03-23T07:02:20;1999.90;;;999.90;;
22378;SDS011;11357;49.990;7.370;2024-03-23T07:04:45;1697.87;;;751.00;;
22378;SDS011;11357;49.990;7.370;2024-03-23T07:07:11;1670.47;;;747.40;;
22378;SDS011;11357;49.990;7.370;2024-03-23T07:17:29;1366.23;;;283.97;;
22378;SDS011;11357;49.990;7.370;2024-03-23T07:20:00;1479.80;;;683.80;;
22378;SDS011;11357;49.990;7.370;2024-03-23T07:22:29;1999.90;;;999.90;;
22378;SDS011;11357;49.990;7.370;2024-03-23T07:25:00;1999.90;;;999.90;;
22378;SDS011;11357;49.990;7.370;2024-03-23T07:27:26;1999.90;;;999.90;;
22378;SDS011;11357;49.990;7.370;2024-03-23T07:30:05;1999.90;;;999.90;;
22378;SDS011;11357;49.990;7.370;2024-03-23T07:32:31;1999.90;;;999.90;;
22378;SDS011;11357;49.990;7.370;2024-03-23T07:34:57;1999.90;;;999.90;;
22378;SDS011;11357;49.990;7.370;2024-03-23T07:37:22;1999.90;;;999.90;;
22378;SDS011;11357;49.990;7.370;2024-03-23T07:39:48;1999.90;;;999.90;;
22378;SDS011;11357;49.990;7.370;2024-03-23T07:42:14;1999.90;;;999.90;;
22378;SDS011;11357;49.990;7.370;2024-03-23T07:44:39;1999.90;;;999.90;;
22378;SDS011;11357;49.990;7.370;2024-03-23T07:47:05;1999.90;;;999.90;;
22378;SDS011;11357;49.990;7.370;2024-03-23T07:49:37;1999.90;;;999.90;;
22378;SDS011;11357;49.990;7.370;2024-03-23T07:52:02;1999.90;;;999.90;;
22378;SDS011;11357;49.990;7.370;2024-03-23T07:54:28;1999.90;;;999.90;;
22378;SDS011;11357;49.990;7.370;2024-03-23T07:56:54;1999.90;;;999.90;;
22378;SDS011;11357;49.990;7.370;2024-03-23T08:07:06;1999.90;;;999.90;;
22378;SDS011;11357;49.990;7.370;2024-03-23T08:12:07;1999.90;;;999.90;;
22378;SDS011;11357;49.990;7.370;2024-03-23T08:14:32;1999.90;;;928.97;;
22378;SDS011;11357;49.990;7.370;2024-03-23T08:16:58;1999.90;;;999.90;;
22378;SDS011;11357;49.990;7.370;2024-03-23T08:19:39;1999.90;;;999.90;;
22378;SDS011;11357;49.990;7.370;2024-03-23T08:22:04;1999.90;;;789.07;;
22378;SDS011;11357;49.990;7.370;2024-03-23T08:24:31;1999.90;;;999.90;;
22378;SDS011;11357;49.990;7.370;2024-03-23T08:26:56;1999.90;;;999.90;;
22378;SDS011;11357;49.990;7.370;2024-03-23T08:29:22;1999.90;;;740.77;;
22378;SDS011;11357;49.990;7.370;2024-03-23T08:31:47;1932.23;;;763.00;;
22378;SDS011;11357;49.990;7.370;2024-03-23T08:34:13;1498.43;;;634.93;;
22378;SDS011;11357;49.990;7.370;2024-03-23T08:36:39;1652.70;;;730.27;;
22378;SDS011;11357;49.990;7.370;2024-03-23T08:39:04;496.80;;;458.57;;
22378;SDS011;11357;49.990;7.370;2024-03-23T08:41:30;525.10;;;490.57;;
22378;SDS011;11357;49.990;7.370;2024-03-23T08:43:55;499.20;;;468.40;;
22378;SDS011;11357;49.990;7.370;2024-03-23T08:46:21;732.43;;;671.47;;
22378;SDS011;11357;49.990;7.370;2024-03-23T08:48:47;1269.70;;;757.57;;
22378;SDS011;11357;49.990;7.370;2024-03-23T08:51:14;821.47;;;754.07;;
22378;SDS011;11357;49.990;7.370;2024-03-23T08:53:41;1013.00;;;849.70;;
22378;SDS011;11357;49.990;7.370;2024-03-23T08:56:08;942.90;;;859.43;;
22378;SDS011;11357;49.990;7.370;2024-03-23T09:16:51;1999.90;;;999.90;;
22378;SDS011;11357;49.990;7.370;2024-03-23T09:19:17;1999.90;;;999.90;;
22378;SDS011;11357;49.990;7.370;2024-03-23T09:21:42;1999.90;;;999.90;;
22378;SDS011;11357;49.990;7.370;2024-03-23T09:24:08;1999.90;;;999.90;;
22378;SDS011;11357;49.990;7.370;2024-03-23T09:26:34;1999.90;;;971.10;;
22378;SDS011;11357;49.990;7.370;2024-03-23T09:31:30;1999.90;;;807.87;;
22378;SDS011;11357;49.990;7.370;2024-03-23T09:33:58;1999.90;;;999.90;;
22378;SDS011;11357;49.990;7.370;2024-03-23T09:36:24;1999.90;;;999.90;;
22378;SDS011;11357;49.990;7.370;2024-03-23T09:51:46;1999.90;;;999.90;;
22378;SDS011;11357;49.990;7.370;2024-03-23T09:54:12;1745.37;;;661.30;;
22378;SDS011;11357;49.990;7.370;2024-03-23T09:56:38;1891.10;;;764.87;;
22378;SDS011;11357;49.990;7.370;2024-03-23T10:04:40;1999.90;;;999.90;;
22378;SDS011;11357;49.990;7.370;2024-03-23T10:07:18;1999.90;;;999.90;;
22378;SDS011;11357;49.990;7.370;2024-03-23T10:17:30;1999.90;;;999.90;;
22378;SDS011;11357;49.990;7.370;2024-03-23T11:14:22;1628.37;;;999.90;;
22378;SDS011;11357;49.990;7.370;2024-03-23T11:17:07;1668.73;;;999.90;;
22378;SDS011;11357;49.990;7.370;2024-03-23T11:19:34;1683.07;;;999.90;;
22378;SDS011;11357;49.990;7.370;2024-03-23T11:22:01;1934.10;;;999.90;;
22378;SDS011;11357;49.990;7.370;2024-03-23T11:24:28;1846.40;;;999.90;;
22378;SDS011;11357;49.990;7.370;2024-03-23T11:26:54;1999.90;;;999.90;;
22378;SDS011;11357;49.990;7.370;2024-03-23T11:29:20;1643.63;;;999.90;;
22378;SDS011;11357;49.990;7.370;2024-03-23T11:31:49;1885.27;;;999.90;;
22378;SDS011;11357;49.990;7.370;2024-03-23T11:34:19;1752.97;;;999.90;;
22378;SDS011;11357;49.990;7.370;2024-03-23T11:36:45;1791.83;;;999.90;;
22378;SDS011;11357;49.990;7.370;2024-03-23T11:39:15;1449.60;;;999.90;;
22378;SDS011;11357;49.990;7.370;2024-03-23T11:41:48;1540.90;;;999.90;;
22378;SDS011;11357;49.990;7.370;2024-03-23T11:44:15;1034.20;;;897.60;;
22378;SDS011;11357;49.990;7.370;2024-03-23T11:46:48;1184.13;;;852.50;;
22378;SDS011;11357;49.990;7.370;2024-03-23T11:49:27;1999.90;;;837.93;;
22378;SDS011;11357;49.990;7.370;2024-03-23T11:51:55;1999.90;;;999.90;;
22378;SDS011;11357;49.990;7.370;2024-03-23T11:54:22;1999.90;;;999.90;;
22378;SDS011;11357;49.990;7.370;2024-03-23T11:59:31;1999.90;;;999.90;;
22378;SDS011;11357;49.990;7.370;2024-03-23T12:02:12;1999.90;;;999.90;;
22378;SDS011;11357;49.990;7.370;2024-03-23T12:04:41;1999.90;;;999.90;;
22378;SDS011;11357;49.990;7.370;2024-03-23T12:10:03;1614.60;;;496.13;;
22378;SDS011;11357;49.990;7.370;2024-03-23T12:12:31;1999.90;;;999.90;;
22378;SDS011;11357;49.990;7.370;2024-03-23T12:15:04;1999.90;;;999.90;;
22378;SDS011;11357;49.990;7.370;2024-03-23T12:17:31;1951.70;;;788.67;;
22378;SDS011;11357;49.990;7.370;2024-03-23T12:19:57;1827.17;;;774.93;;
22378;SDS011;11357;49.990;7.370;2024-03-23T12:22:23;1999.90;;;766.07;;
22378;SDS011;11357;49.990;7.370;2024-03-23T12:24:49;1999.90;;;653.50;;
22378;SDS011;11357;49.990;7.370;2024-03-23T12:27:15;1999.90;;;686.13;;
22378;SDS011;11357;49.990;7.370;2024-03-23T12:29:42;1759.20;;;700.77;;
22378;SDS011;11357;49.990;7.370;2024-03-23T12:32:10;1999.90;;;999.90;;
22378;SDS011;11357;49.990;7.370;2024-03-23T12:34:37;1766.30;;;421.17;;
22378;SDS011;11357;49.990;7.370;2024-03-23T12:37:02;1999.90;;;703.20;;
22378;SDS011;11357;49.990;7.370;2024-03-23T12:39:28;1999.90;;;730.20;;
22378;SDS011;11357;49.990;7.370;2024-03-23T12:41:54;1999.90;;;794.73;;
22378;SDS011;11357;49.990;7.370;2024-03-23T12:44:20;1999.90;;;713.30;;
22378;SDS011;11357;49.990;7.370;2024-03-23T12:46:46;1999.90;;;879.57;;
22378;SDS011;11357;49.990;7.370;2024-03-23T12:49:12;1999.90;;;848.67;;
22378;SDS011;11357;49.990;7.370;2024-03-23T12:51:37;1999.90;;;974.13;;
22378;SDS011;11357;49.990;7.370;2024-03-23T12:54:04;1999.90;;;737.83;;
22378;SDS011;11357;49.990;7.370;2024-03-23T12:56:29;1999.90;;;975.27;;
22378;SDS011;11357;49.990;7.370;2024-03-23T12:58:55;486.20;;;457.87;;
22378;SDS011;11357;49.990;7.370;2024-03-23T13:01:24;652.10;;;592.37;;
22378;SDS011;11357;49.990;7.370;2024-03-23T13:03:50;736.93;;;644.90;;
22378;SDS011;11357;49.990;7.370;2024-03-23T13:06:16;651.47;;;557.10;;
22378;SDS011;11357;49.990;7.370;2024-03-23T13:08:46;865.33;;;688.40;;
22378;SDS011;11357;49.990;7.370;2024-03-23T13:11:12;1999.90;;;984.23;;
22378;SDS011;11357;49.990;7.370;2024-03-23T13:13:39;1906.13;;;966.33;;
22378;SDS011;11357;49.990;7.370;2024-03-23T13:16:05;708.67;;;659.73;;
22378;SDS011;11357;49.990;7.370;2024-03-23T13:18:31;615.57;;;576.03;;
22378;SDS011;11357;49.990;7.370;2024-03-23T13:20:57;897.57;;;814.80;;
22378;SDS011;11357;49.990;7.370;2024-03-23T13:23:23;713.80;;;665.23;;
22378;SDS011;11357;49.990;7.370;2024-03-23T13:25:52;776.50;;;716.47;;
22378;SDS011;11357;49.990;7.370;2024-03-23T13:28:19;1082.50;;;912.03;;
22378;SDS011;11357;49.990;7.370;2024-03-23T13:30:55;645.50;;;603.63;;
22378;SDS011;11357;49.990;7.370;2024-03-23T13:33:22;756.67;;;704.00;;
22378;SDS011;11357;49.990;7.370;2024-03-23T13:35:55;839.80;;;770.33;;
22378;SDS011;11357;49.990;7.370;2024-03-23T13:38:21;704.90;;;657.03;;
22378;SDS011;11357;49.990;7.370;2024-03-23T13:40:54;767.13;;;712.53;;
22378;SDS011;11357;49.990;7.370;2024-03-23T13:43:22;809.17;;;751.07;;
22378;SDS011;11357;49.990;7.370;2024-03-23T13:45:48;889.97;;;822.03;;
22378;SDS011;11357;49.990;7.370;2024-03-23T13:48:18;894.43;;;824.00;;
22378;SDS011;11357;49.990;7.370;2024-03-23T13:50:45;954.67;;;876.93;;
22378;SDS011;11357;49.990;7.370;2024-03-23T13:53:12;879.03;;;813.53;;
22378;SDS011;11357;49.990;7.370;2024-03-23T13:55:43;951.73;;;874.90;;
22378;SDS011;11357;49.990;7.370;2024-03-23T13:58:14;935.20;;;859.53;;
22378;SDS011;11357;49.990;7.370;2024-03-23T14:00:41;1010.47;;;918.93;;
22378;SDS011;11357;49.990;7.370;2024-03-23T14:03:10;989.13;;;904.13;;
22378;SDS011;11357;49.990;7.370;2024-03-23T14:05:37;956.77;;;878.07;;
22378;SDS011;11357;49.990;7.370;2024-03-23T14:08:06;930.73;;;856.20;;
22378;SDS011;11357;49.990;7.370;2024-03-23T14:10:32;930.63;;;852.73;;
22378;SDS011;11357;49.990;7.370;2024-03-23T14:12:58;1014.47;;;920.30;;
22378;SDS011;11357;49.990;7.370;2024-03-23T14:15:27;959.30;;;847.70;;
22378;SDS011;11357;49.990;7.370;2024-03-23T14:17:52;767.10;;;712.50;;
22378;SDS011;11357;49.990;7.370;2024-03-23T14:20:19;694.27;;;647.63;;
22378;SDS011;11357;49.990;7.370;2024-03-23T14:22:46;665.07;;;619.50;;
22378;SDS011;11357;49.990;7.370;2024-03-23T14:25:12;540.60;;;507.70;;
22378;SDS011;11357;49.990;7.370;2024-03-23T14:27:37;558.00;;;519.40;;
22378;SDS011;11357;49.990;7.370;2024-03-23T14:30:03;407.93;;;380.93;;
22378;SDS011;11357;49.990;7.370;2024-03-23T14:32:30;323.63;;;305.10;;
22378;SDS011;11357;49.990;7.370;2024-03-23T14:35:02;1999.90;;;874.97;;
22378;SDS011;11357;49.990;7.370;2024-03-23T14:37:32;1672.63;;;456.83;;
22378;SDS011;11357;49.990;7.370;2024-03-23T14:39:57;1999.90;;;999.90;;
22378;SDS011;11357;49.990;7.370;2024-03-23T14:42:24;1999.90;;;999.90;;
22378;SDS011;11357;49.990;7.370;2024-03-23T14:44:50;1999.90;;;999.90;;
22378;SDS011;11357;49.990;7.370;2024-03-23T14:47:16;1999.90;;;999.90;;
22378;SDS011;11357;49.990;7.370;2024-03-23T14:49:42;1999.90;;;999.90;;
22378;SDS011;11357;49.990;7.370;2024-03-23T14:52:12;1999.90;;;999.90;;
22378;SDS011;11357;49.990;7.370;2024-03-23T14:54:38;1999.90;;;761.23;;
22378;SDS011;11357;49.990;7.370;2024-03-23T14:57:04;1999.90;;;999.90;;
22378;SDS011;11357;49.990;7.370;2024-03-23T14:59:31;1368.00;;;492.93;;
22378;SDS011;11357;49.990;7.370;2024-03-23T15:01:57;338.03;;;309.13;;
22378;SDS011;11357;49.990;7.370;2024-03-23T15:04:23;362.83;;;325.73;;
22378;SDS011;11357;49.990;7.370;2024-03-23T15:06:48;1991.77;;;712.60;;
22378;SDS011;11357;49.990;7.370;2024-03-23T15:09:15;1999.90;;;677.33;;
22378;SDS011;11357;49.990;7.370;2024-03-23T15:11:41;1852.33;;;600.87;;
22378;SDS011;11357;49.990;7.370;2024-03-23T15:14:07;688.80;;;487.23;;
22378;SDS011;11357;49.990;7.370;2024-03-23T15:16:33;93.67;;;88.73;;
22378;SDS011;11357;49.990;7.370;2024-03-23T15:18:58;377.63;;;347.73;;
22378;SDS011;11357;49.990;7.370;2024-03-23T15:21:25;461.53;;;345.13;;
22378;SDS011;11357;49.990;7.370;2024-03-23T15:23:50;1579.07;;;664.80;;
22378;SDS011;11357;49.990;7.370;2024-03-23T15:26:16;717.73;;;433.10;;
22378;SDS011;11357;49.990;7.370;2024-03-23T15:28:42;220.77;;;207.30;;
22378;SDS011;11357;49.990;7.370;2024-03-23T15:31:35;328.10;;;301.07;;
22378;SDS011;11357;49.990;7.370;2024-03-23T15:34:01;1587.33;;;641.37;;
22378;SDS011;11357;49.990;7.370;2024-03-23T15:36:26;1044.13;;;527.83;;
22378;SDS011;11357;49.990;7.370;2024-03-23T15:38:52;1968.47;;;780.47;;
22378;SDS011;11357;49.990;7.370;2024-03-23T15:41:19;797.13;;;534.13;;
22378;SDS011;11357;49.990;7.370;2024-03-23T15:43:48;184.97;;;117.00;;
22378;SDS011;11357;49.990;7.370;2024-03-23T15:46:13;50.93;;;48.33;;
22378;SDS011;11357;49.990;7.370;2024-03-23T15:48:40;180.10;;;169.57;;
22378;SDS011;11357;49.990;7.370;2024-03-23T15:51:11;167.60;;;156.07;;
22378;SDS011;11357;49.990;7.370;2024-03-23T15:53:36;72.33;;;68.57;;
22378;SDS011;11357;49.990;7.370;2024-03-23T15:56:02;716.20;;;520.90;;
22378;SDS011;11357;49.990;7.370;2024-03-23T15:58:32;50.33;;;47.57;;
22378;SDS011;11357;49.990;7.370;2024-03-23T16:01:00;244.77;;;230.13;;
22378;SDS011;11357;49.990;7.370;2024-03-23T16:03:28;53.20;;;50.57;;
22378;SDS011;11357;49.990;7.370;2024-03-23T16:05:54;67.50;;;64.10;;
22378;SDS011;11357;49.990;7.370;2024-03-23T16:08:21;96.63;;;89.80;;
22378;SDS011;11357;49.990;7.370;2024-03-23T16:10:48;125.27;;;118.30;;
22378;SDS011;11357;49.990;7.370;2024-03-23T16:13:13;71.63;;;67.77;;
22378;SDS011;11357;49.990;7.370;2024-03-23T16:15:39;108.50;;;102.73;;
22378;SDS011;11357;49.990;7.370;2024-03-23T16:18:05;62.53;;;59.53;;
22378;SDS011;11357;49.990;7.370;2024-03-23T16:20:31;133.73;;;117.90;;
22378;SDS011;11357;49.990;7.370;2024-03-23T16:22:58;65.20;;;61.97;;
22378;SDS011;11357;49.990;7.370;2024-03-23T16:25:24;103.77;;;97.40;;
22378;SDS011;11357;49.990;7.370;2024-03-23T16:27:50;532.40;;;431.63;;
22378;SDS011;11357;49.990;7.370;2024-03-23T16:30:16;144.27;;;101.77;;
22378;SDS011;11357;49.990;7.370;2024-03-23T16:32:42;638.83;;;375.47;;
22378;SDS011;11357;49.990;7.370;2024-03-23T16:35:07;792.30;;;506.97;;
22378;SDS011;11357;49.990;7.370;2024-03-23T16:37:37;914.60;;;477.50;;
22378;SDS011;11357;49.990;7.370;2024-03-23T16:40:02;905.47;;;511.20;;
22378;SDS011;11357;49.990;7.370;2024-03-23T16:42:29;1102.13;;;533.97;;
22378;SDS011;11357;49.990;7.370;2024-03-23T16:44:55;534.37;;;480.03;;
22378;SDS011;11357;49.990;7.370;2024-03-23T16:47:20;578.90;;;434.90;;
22378;SDS011;11357;49.990;7.370;2024-03-23T16:49:46;292.57;;;269.07;;
22378;SDS011;11357;49.990;7.370;2024-03-23T16:52:11;814.50;;;492.43;;
22378;SDS011;11357;49.990;7.370;2024-03-23T16:54:37;1906.23;;;749.63;;
22378;SDS011;11357;49.990;7.370;2024-03-23T16:57:03;1701.50;;;667.80;;
22378;SDS011;11357;49.990;7.370;2024-03-23T16:59:29;1595.07;;;618.23;;
22378;SDS011;11357;49.990;7.370;2024-03-23T17:01:54;1988.27;;;847.97;;
22378;SDS011;11357;49.990;7.370;2024-03-23T17:04:23;1187.10;;;542.43;;
22378;SDS011;11357;49.990;7.370;2024-03-23T17:06:49;1999.90;;;999.90;;
22378;SDS011;11357;49.990;7.370;2024-03-23T17:09:15;1999.90;;;695.70;;
22378;SDS011;11357;49.990;7.370;2024-03-23T17:11:41;1999.90;;;999.90;;
22378;SDS011;11357;49.990;7.370;2024-03-23T17:14:08;1999.90;;;999.90;;
22378;SDS011;11357;49.990;7.370;2024-03-23T17:16:34;1999.90;;;999.90;;
22378;SDS011;11357;49.990;7.370;2024-03-23T17:19:00;1999.90;;;999.90;;
22378;SDS011;11357;49.990;7.370;2024-03-23T17:21:26;1981.20;;;651.00;;
22378;SDS011;11357;49.990;7.370;2024-03-23T17:23:52;1999.90;;;819.63;;
22378;SDS011;11357;49.990;7.370;2024-03-23T17:26:22;1061.70;;;377.77;;
22378;SDS011;11357;49.990;7.370;2024-03-23T17:28:48;1999.90;;;767.20;;
22378;SDS011;11357;49.990;7.370;2024-03-23T17:31:17;1999.90;;;711.13;;
22378;SDS011;11357;49.990;7.370;2024-03-23T17:33:44;1999.90;;;999.90;;
22378;SDS011;11357;49.990;7.370;2024-03-23T17:36:10;1999.90;;;999.90;;
22378;SDS011;11357;49.990;7.370;2024-03-23T17:38:35;1999.90;;;999.90;;
22378;SDS011;11357;49.990;7.370;2024-03-23T17:41:03;1999.90;;;999.90;;
22378;SDS011;11357;49.990;7.370;2024-03-23T17:43:29;1999.90;;;999.90;;
22378;SDS011;11357;49.990;7.370;2024-03-23T17:45:55;1999.90;;;999.90;;
22378;SDS011;11357;49.990;7.370;2024-03-23T17:48:24;1999.90;;;716.93;;
22378;SDS011;11357;49.990;7.370;2024-03-23T17:51:00;1999.90;;;999.90;;
22378;SDS011;11357;49.990;7.370;2024-03-23T17:53:28;1999.90;;;999.90;;
22378;SDS011;11357;49.990;7.370;2024-03-23T17:55:54;1999.90;;;999.90;;
22378;SDS011;11357;49.990;7.370;2024-03-23T17:58:20;1999.90;;;999.90;;
22378;SDS011;11357;49.990;7.370;2024-03-23T18:00:46;1999.90;;;999.90;;
22378;SDS011;11357;49.990;7.370;2024-03-23T18:03:11;1999.90;;;999.90;;
22378;SDS011;11357;49.990;7.370;2024-03-23T18:05:37;1999.90;;;999.90;;
22378;SDS011;11357;49.990;7.370;2024-03-23T18:08:03;1999.90;;;999.90;;
22378;SDS011;11357;49.990;7.370;2024-03-23T18:10:29;1999.90;;;999.90;;
22378;SDS011;11357;49.990;7.370;2024-03-23T18:12:55;1999.90;;;999.90;;
22378;SDS011;11357;49.990;7.370;2024-03-23T18:15:20;1999.90;;;999.90;;
22378;SDS011;11357;49.990;7.370;2024-03-23T18:17:46;1999.90;;;999.90;;
22378;SDS011;11357;49.990;7.370;2024-03-23T18:20:13;1999.90;;;999.90;;
22378;SDS011;11357;49.990;7.370;2024-03-23T18:22:39;1999.90;;;999.90;;
22378;SDS011;11357;49.990;7.370;2024-03-23T18:25:06;1999.90;;;999.90;;
22378;SDS011;11357;49.990;7.370;2024-03-23T18:27:31;1999.90;;;999.90;;
22378;SDS011;11357;49.990;7.370;2024-03-23T18:29:57;1999.90;;;999.90;;
22378;SDS011;11357;49.990;7.370;2024-03-23T18:32:22;1999.90;;;999.90;;
22378;SDS011;11357;49.990;7.370;2024-03-23T18:34:48;1999.90;;;999.90;;
22378;SDS011;11357;49.990;7.370;2024-03-23T18:37:15;1999.90;;;999.90;;
22378;SDS011;11357;49.990;7.370;2024-03-23T18:39:41;1999.90;;;999.90;;
22378;SDS011;11357;49.990;7.370;2024-03-23T18:42:07;1999.90;;;999.90;;
22378;SDS011;11357;49.990;7.370;2024-03-23T18:44:32;1693.70;;;743.57;;
22378;SDS011;11357;49.990;7.370;2024-03-23T18:46:58;1999.90;;;999.90;;
22378;SDS011;11357;49.990;7.370;2024-03-23T18:49:24;1999.90;;;999.90;;
22378;SDS011;11357;49.990;7.370;2024-03-23T18:51:49;1999.90;;;999.90;;
22378;SDS011;11357;49.990;7.370;2024-03-23T18:54:15;1780.23;;;787.63;;
22378;SDS011;11357;49.990;7.370;2024-03-23T18:56:40;1634.83;;;742.83;;
22378;SDS011;11357;49.990;7.370;2024-03-23T18:59:06;1751.90;;;767.60;;
22378;SDS011;11357;49.990;7.370;2024-03-23T19:01:32;1679.83;;;745.43;;
22378;SDS011;11357;49.990;7.370;2024-03-23T19:04:01;1999.90;;;999.90;;
22378;SDS011;11357;49.990;7.370;2024-03-23T19:06:28;1999.90;;;999.90;;
22378;SDS011;11357;49.990;7.370;2024-03-23T19:08:53;1582.60;;;725.70;;
22378;SDS011;11357;49.990;7.370;2024-03-23T19:11:19;1634.60;;;731.30;;
22378;SDS011;11357;49.990;7.370;2024-03-23T19:13:45;1999.90;;;999.90;;
22378;SDS011;11357;49.990;7.370;2024-03-23T19:16:10;1999.90;;;999.90;;
22378;SDS011;11357;49.990;7.370;2024-03-23T19:18:36;1999.90;;;999.90;;
22378;SDS011;11357;49.990;7.370;2024-03-23T19:21:02;1709.63;;;751.77;;
22378;SDS011;11357;49.990;7.370;2024-03-23T19:23:28;1719.67;;;759.40;;
22378;SDS011;11357;49.990;7.370;2024-03-23T19:25:57;1753.07;;;762.73;;
22378;SDS011;11357;49.990;7.370;2024-03-23T19:28:24;1646.87;;;738.00;;
22378;SDS011;11357;49.990;7.370;2024-03-23T19:30:51;1999.90;;;999.90;;
22378;SDS011;11357;49.990;7.370;2024-03-23T19:33:18;1999.90;;;999.90;;
22378;SDS011;11357;49.990;7.370;2024-03-23T19:35:44;1999.90;;;999.90;;
22378;SDS011;11357;49.990;7.370;2024-03-23T19:38:12;1999.90;;;999.90;;
22378;SDS011;11357;49.990;7.370;2024-03-23T19:40:38;1999.90;;;999.90;;
22378;SDS011;11357;49.990;7.370;2024-03-23T19:43:03;1999.90;;;999.90;;
22378;SDS011;11357;49.990;7.370;2024-03-23T19:45:29;1999.90;;;999.90;;
22378;SDS011;11357;49.990;7.370;2024-03-23T19:47:56;1999.90;;;999.90;;
22378;SDS011;11357;49.990;7.370;2024-03-23T19:50:22;1999.90;;;999.90;;
22378;SDS011;11357;49.990;7.370;2024-03-23T19:52:50;1999.90;;;999.90;;
22378;SDS011;11357;49.990;7.370;2024-03-23T19:55:16;1999.90;;;999.90;;